Time;durP1;ratioP1;P1;durP2;ratioP2;P2;SDS_P1;SDS_P2;PMS_P1;PMS_P2;Temp;Humidity;BMP_temperature;BMP_pressure;BME280_temperature;BME280_humidity;BME280_pressure;Samples;Min_cycle;Max_cycle;Signal;HPM_P1;HPM_P2
2022/07/08 00:02:34;;;;;;;0.00;0.00;;;20.90;66.90;;;;;;3919614;29;20075;-62
2022/07/08 00:05:28;;;;;;;0.00;0.00;;;20.90;67.00;;;;;;3960078;29;20058;-62
2022/07/08 00:07:54;;;;;;;0.00;0.00;;;20.90;67.00;;;;;;3936129;29;20426;-62
2022/07/08 00:10:21;;;;;;;0.30;0.30;;;20.90;67.00;;;;;;3953128;29;20059;-62
2022/07/08 00:12:45;;;;;;;0.00;0.00;;;20.90;67.10;;;;;;3955226;29;20448;-63
2022/07/08 00:15:13;;;;;;;0.00;0.00;;;20.90;67.10;;;;;;3939086;30;20068;-62
2022/07/08 00:18:39;;;;;;;0.00;0.00;;;20.90;67.10;;;;;;3889622;30;20061;-62
2022/07/08 00:21:52;;;;;;;19.15;2.85;;;20.90;67.10;;;;;;3862222;30;20339;-66
2022/07/08 00:24:52;;;;;;;0.00;0.00;;;20.90;67.10;;;;;;3890885;30;20076;-68
2022/07/08 00:28:55;;;;;;;0.00;0.00;;;20.90;67.20;;;;;;3854193;30;20072;-67
2022/07/08 00:31:22;;;;;;;0.00;0.00;;;20.90;67.20;;;;;;3844013;30;20058;-69
2022/07/08 00:33:51;;;;;;;0.00;0.00;;;20.90;67.20;;;;;;3876993;30;20167;-69
2022/07/08 00:36:19;;;;;;;0.00;0.00;;;20.90;67.30;;;;;;3869271;30;20066;-69
2022/07/08 00:38:46;;;;;;;0.00;0.00;;;20.90;67.30;;;;;;3889022;30;20146;-69
2022/07/08 00:41:10;;;;;;;0.00;0.00;;;20.90;67.40;;;;;;3896893;30;20045;-68
2022/07/08 00:43:38;;;;;;;0.10;0.10;;;20.90;67.50;;;;;;3947116;30;20051;-69
2022/07/08 00:46:07;;;;;;;0.00;0.00;;;20.90;67.50;;;;;;3953011;29;20063;-67
2022/07/08 00:48:32;;;;;;;0.00;0.00;;;20.90;67.50;;;;;;3956306;29;20056;-69
2022/07/08 00:51:08;;;;;;;0.00;0.00;;;20.90;67.50;;;;;;3963509;29;20047;-69
2022/07/08 00:53:34;;;;;;;0.00;0.00;;;20.90;67.50;;;;;;3963327;29;20065;-69
2022/07/08 00:56:03;;;;;;;0.00;0.00;;;20.90;67.60;;;;;;3975451;29;20062;-68
2022/07/08 00:58:27;;;;;;;0.00;0.00;;;20.90;67.50;;;;;;3956942;29;20062;-68
2022/07/08 01:00:58;;;;;;;0.00;0.00;;;20.90;67.50;;;;;;3950144;29;20123;-69
2022/07/08 01:03:26;;;;;;;0.00;0.00;;;20.90;67.60;;;;;;3963500;29;20056;-69
2022/07/08 01:05:52;;;;;;;0.00;0.00;;;20.90;67.60;;;;;;3946844;29;20573;-69
2022/07/08 01:08:23;;;;;;;0.00;0.00;;;20.90;67.70;;;;;;3941808;29;20105;-69
2022/07/08 01:10:48;;;;;;;0.00;0.00;;;20.90;67.70;;;;;;3937875;30;20071;-68
2022/07/08 01:13:24;;;;;;;0.00;0.00;;;20.90;67.60;;;;;;3934326;30;20497;-68
2022/07/08 01:15:49;;;;;;;0.95;0.80;;;20.90;67.70;;;;;;3949087;30;20503;-69
2022/07/08 01:18:23;;;;;;;0.00;0.00;;;20.90;67.80;;;;;;3943082;29;20063;-69
2022/07/08 01:21:00;;;;;;;0.08;0.08;;;20.90;67.80;;;;;;3898321;30;20061;-67
2022/07/08 01:23:38;;;;;;;0.10;0.10;;;20.90;67.70;;;;;;3910061;30;20085;-67
2022/07/08 01:26:32;;;;;;;0.00;0.00;;;20.90;67.80;;;;;;3923486;30;20082;-67
2022/07/08 01:29:15;;;;;;;0.00;0.00;;;20.80;67.70;;;;;;3924820;29;20116;-62
2022/07/08 01:31:49;;;;;;;0.00;0.00;;;20.90;67.80;;;;;;3910159;29;20074;-62
2022/07/08 01:34:18;;;;;;;0.00;0.00;;;20.90;67.80;;;;;;3959932;29;20057;-61
2022/07/08 01:36:46;;;;;;;0.45;0.45;;;20.90;67.80;;;;;;3954608;29;20058;-62
2022/07/08 01:39:53;;;;;;;0.00;0.00;;;20.80;67.80;;;;;;3944894;29;20075;-61
2022/07/08 01:42:41;;;;;;;0.00;0.00;;;20.90;67.90;;;;;;3961000;29;20067;-62
2022/07/08 01:45:09;;;;;;;0.10;0.10;;;20.90;67.90;;;;;;3932548;29;20081;-62
2022/07/08 01:48:21;;;;;;;0.00;0.00;;;20.80;67.90;;;;;;3967183;29;20062;-61
2022/07/08 01:51:04;;;;;;;0.65;0.32;;;20.80;67.90;;;;;;3953052;29;20090;-62
2022/07/08 01:53:36;;;;;;;0.20;0.20;;;20.80;68.00;;;;;;3937467;29;20089;-62
2022/07/08 01:56:07;;;;;;;0.00;0.00;;;20.80;68.10;;;;;;3965048;29;20059;-62
2022/07/08 01:58:32;;;;;;;0.15;0.15;;;20.80;68.10;;;;;;3961962;29;20050;-64
2022/07/08 02:01:05;;;;;;;0.10;0.10;;;20.80;69.00;;;;;;3953287;29;20063;-63
2022/07/08 02:03:35;;;;;;;0.00;0.00;;;20.80;68.10;;;;;;3938720;29;20054;-60
2022/07/08 02:06:01;;;;;;;0.00;0.00;;;20.80;68.20;;;;;;3957887;29;20056;-61
2022/07/08 02:08:40;;;;;;;0.00;0.00;;;20.80;68.20;;;;;;3915954;29;20102;-61
2022/07/08 02:14:21;;;;;;;0.00;0.00;;;20.80;68.30;;;;;;3943202;29;20130;-64
2022/07/08 02:16:57;;;;;;;0.00;0.00;;;20.80;68.40;;;;;;3961527;29;20055;-61
2022/07/08 02:20:28;;;;;;;0.70;0.63;;;20.80;68.40;;;;;;3937797;29;20051;-68
2022/07/08 02:23:10;;;;;;;0.00;0.00;;;20.70;68.40;;;;;;3912376;30;20074;-67
2022/07/08 02:25:39;;;;;;;0.00;0.00;;;20.70;68.50;;;;;;3922542;30;20059;-69
2022/07/08 02:28:09;;;;;;;0.00;0.00;;;20.70;68.50;;;;;;3933984;30;20084;-68
2022/07/08 02:30:34;;;;;;;0.00;0.00;;;20.70;68.60;;;;;;3950284;29;20055;-68
2022/07/08 02:35:49;;;;;;;0.00;0.00;;;20.70;68.60;;;;;;3967146;29;20058;-67
2022/07/08 02:38:40;;;;;;;0.00;0.00;;;20.70;68.70;;;;;;3954272;30;20081;-66
2022/07/08 02:41:19;;;;;;;0.00;0.00;;;20.70;68.70;;;;;;3938218;30;20435;-67
2022/07/08 02:49:08;;;;;;;0.00;0.00;;;20.70;68.80;;;;;;3959805;29;20138;-66
2022/07/08 02:51:40;;;;;;;0.00;0.00;;;20.70;68.80;;;;;;3952727;29;20067;-66
2022/07/08 02:54:20;;;;;;;0.00;0.00;;;20.70;68.80;;;;;;3920653;29;20204;-66
2022/07/08 02:56:47;;;;;;;0.00;0.00;;;20.70;68.90;;;;;;3946822;29;20059;-68
2022/07/08 02:59:14;;;;;;;0.10;0.10;;;20.70;68.90;;;;;;3950725;29;20150;-66
2022/07/08 03:01:39;;;;;;;0.00;0.00;;;20.70;68.90;;;;;;3946099;29;20063;-66
2022/07/08 03:04:04;;;;;;;0.00;0.00;;;20.70;69.00;;;;;;3962212;29;20058;-66
2022/07/08 03:06:31;;;;;;;0.00;0.00;;;20.70;68.90;;;;;;3948403;29;20059;-66
2022/07/08 03:09:01;;;;;;;0.00;0.00;;;20.70;69.00;;;;;;3949295;29;20063;-67
2022/07/08 03:11:26;;;;;;;0.00;0.00;;;20.60;68.90;;;;;;3948895;29;20069;-66
2022/07/08 03:13:52;;;;;;;0.00;0.00;;;20.60;68.90;;;;;;3963220;29;20119;-67
2022/07/08 03:16:18;;;;;;;0.00;0.00;;;20.60;68.90;;;;;;3948063;30;20055;-67
2022/07/08 03:18:43;;;;;;;0.00;0.00;;;20.60;69.00;;;;;;3949843;30;20133;-67
2022/07/08 03:21:10;;;;;;;0.00;0.00;;;20.60;69.00;;;;;;3952249;30;20720;-68
2022/07/08 03:23:45;;;;;;;0.00;0.00;;;20.60;69.00;;;;;;3931346;29;20074;-67
2022/07/08 03:26:11;;;;;;;0.00;0.00;;;20.60;69.00;;;;;;3959577;30;20063;-67
2022/07/08 03:28:35;;;;;;;0.00;0.00;;;20.60;69.00;;;;;;3952238;29;20097;-67
2022/07/08 03:31:02;;;;;;;0.00;0.00;;;20.60;69.10;;;;;;3962575;29;20063;-66
2022/07/08 03:33:27;;;;;;;0.30;0.30;;;20.60;69.10;;;;;;3949935;29;20043;-67
2022/07/08 03:35:52;;;;;;;0.00;0.00;;;20.60;69.10;;;;;;3960154;29;20093;-66
2022/07/08 03:38:19;;;;;;;0.00;0.00;;;20.60;69.10;;;;;;3940132;29;20075;-68
2022/07/08 03:43:29;;;;;;;0.00;0.00;;;20.60;69.20;;;;;;3955886;30;20073;-67
2022/07/08 03:45:52;;;;;;;0.10;0.10;;;20.60;69.30;;;;;;3934254;30;20059;-67
2022/07/08 03:48:17;;;;;;;0.00;0.00;;;20.60;69.30;;;;;;3953993;30;20410;-67
2022/07/08 03:50:41;;;;;;;0.00;0.00;;;20.60;69.20;;;;;;3952874;29;20055;-66
2022/07/08 03:53:06;;;;;;;0.00;0.00;;;20.60;69.20;;;;;;3967726;29;20096;-67
2022/07/08 03:55:29;;;;;;;0.00;0.00;;;20.60;69.20;;;;;;3957124;29;20054;-67
2022/07/08 03:57:54;;;;;;;0.00;0.00;;;20.60;69.20;;;;;;3961233;29;20058;-67
2022/07/08 04:00:19;;;;;;;0.00;0.00;;;20.60;69.30;;;;;;3965698;29;20063;-68
2022/07/08 04:02:47;;;;;;;0.00;0.00;;;20.60;69.30;;;;;;3938302;30;20047;-68
2022/07/08 04:05:14;;;;;;;0.00;0.00;;;20.60;69.30;;;;;;3947110;30;20051;-68
2022/07/08 04:07:39;;;;;;;0.05;0.05;;;20.60;69.30;;;;;;3944033;30;20108;-68
2022/07/08 04:10:11;;;;;;;0.00;0.00;;;20.60;69.40;;;;;;3922686;30;20114;-68
2022/07/08 04:12:37;;;;;;;0.00;0.00;;;20.60;69.40;;;;;;3942588;30;20059;-67
2022/07/08 04:15:02;;;;;;;0.00;0.00;;;20.60;69.40;;;;;;3946937;30;20063;-67
2022/07/08 04:17:28;;;;;;;0.00;0.00;;;20.60;69.30;;;;;;3940164;30;20055;-67
2022/07/08 04:23:07;;;;;;;0.00;0.00;;;20.60;69.30;;;;;;3934412;30;20059;-67
2022/07/08 04:25:32;;;;;;;0.08;0.08;;;20.60;69.20;;;;;;3934571;30;20121;-66
2022/07/08 04:28:00;;;;;;;0.00;0.00;;;20.60;69.30;;;;;;3916549;30;20062;-66
2022/07/08 04:30:24;;;;;;;0.03;0.03;;;20.60;69.30;;;;;;3949074;29;20523;-66
2022/07/08 04:32:49;;;;;;;0.00;0.00;;;20.60;69.30;;;;;;3958309;29;20061;-68
2022/07/08 04:35:15;;;;;;;0.00;0.00;;;20.60;69.30;;;;;;3931185;29;20491;-66
2022/07/08 04:37:48;;;;;;;0.00;0.00;;;20.60;69.40;;;;;;3950538;29;20081;-68
2022/07/08 04:40:15;;;;;;;0.05;0.05;;;20.60;69.80;;;;;;3948759;29;20154;-68
2022/07/08 04:42:39;;;;;;;0.70;0.70;;;20.70;69.50;;;;;;3955623;29;20146;-67
2022/07/08 04:45:03;;;;;;;0.00;0.00;;;20.70;69.30;;;;;;3948807;29;20119;-68
2022/07/08 04:47:28;;;;;;;0.00;0.00;;;20.70;69.20;;;;;;3959757;29;20142;-67
2022/07/08 04:49:52;;;;;;;0.00;0.00;;;20.70;69.20;;;;;;3947565;29;20054;-68
2022/07/08 04:52:23;;;;;;;0.00;0.00;;;20.80;69.20;;;;;;3941152;30;20086;-68
2022/07/08 04:54:47;;;;;;;0.00;0.00;;;20.80;69.20;;;;;;3951631;29;20066;-66
2022/07/08 04:57:12;;;;;;;0.00;0.00;;;20.70;69.10;;;;;;3965137;29;20043;-67
2022/07/08 04:59:36;;;;;;;0.00;0.00;;;20.80;69.10;;;;;;3940392;29;20065;-67
2022/07/08 05:02:00;;;;;;;0.00;0.00;;;20.80;69.10;;;;;;3954215;29;20062;-67
2022/07/08 05:04:25;;;;;;;0.00;0.00;;;20.80;69.10;;;;;;3937747;30;20074;-66
2022/07/08 05:06:52;;;;;;;0.00;0.00;;;20.80;69.10;;;;;;3948275;29;20062;-67
2022/07/08 05:09:18;;;;;;;0.00;0.00;;;20.70;69.10;;;;;;3925286;29;20524;-62
2022/07/08 05:11:42;;;;;;;0.00;0.00;;;20.70;69.10;;;;;;3961751;29;20048;-63
2022/07/08 05:14:13;;;;;;;0.00;0.00;;;20.70;69.20;;;;;;3940004;30;20392;-63
2022/07/08 05:16:36;;;;;;;0.00;0.00;;;20.70;69.20;;;;;;3943436;30;20055;-63
2022/07/08 05:19:04;;;;;;;0.00;0.00;;;20.80;69.20;;;;;;3938724;29;20568;-63
2022/07/08 05:21:29;;;;;;;0.00;0.00;;;20.80;69.10;;;;;;3955587;29;20540;-63
2022/07/08 05:23:53;;;;;;;0.00;0.00;;;20.80;68.80;;;;;;3946259;29;20059;-63
2022/07/08 05:26:30;;;;;;;0.00;0.00;;;20.90;68.40;;;;;;3934029;29;20055;-63
2022/07/08 05:28:59;;;;;;;0.00;0.00;;;20.90;68.10;;;;;;3956229;29;20065;-63
2022/07/08 05:31:32;;;;;;;0.00;0.00;;;21.00;67.90;;;;;;3944209;29;20082;-63
2022/07/08 05:34:10;;;;;;;0.00;0.00;;;21.10;67.50;;;;;;3935696;29;20059;-62
2022/07/08 05:39:16;;;;;;;2.17;0.47;;;21.10;66.80;;;;;;3952777;29;20051;-63
2022/07/08 05:41:40;;;;;;;0.10;0.10;;;21.20;66.60;;;;;;3949178;29;20058;-63
2022/07/08 05:44:11;;;;;;;0.00;0.00;;;21.20;66.60;;;;;;3941149;29;20047;-63
2022/07/08 05:46:41;;;;;;;0.00;0.00;;;21.10;66.50;;;;;;3959721;29;20066;-64
2022/07/08 05:49:10;;;;;;;0.10;0.10;;;21.10;66.50;;;;;;3957151;29;20082;-64
2022/07/08 05:51:36;;;;;;;0.00;0.00;;;21.10;66.50;;;;;;3945298;29;20543;-63
2022/07/08 05:53:59;;;;;;;0.08;0.08;;;21.10;66.50;;;;;;3959185;29;20116;-63
2022/07/08 05:56:23;;;;;;;2.63;1.38;;;21.00;66.60;;;;;;3952335;29;20141;-63
2022/07/08 05:58:48;;;;;;;0.00;0.00;;;21.00;66.80;;;;;;3940923;29;20112;-63
2022/07/08 06:01:19;;;;;;;0.00;0.00;;;21.00;67.00;;;;;;3937498;29;20096;-64
2022/07/08 06:03:46;;;;;;;;;;;21.00;67.10;;;;;;3952231;29;20116;-63
2022/07/08 06:06:11;;;;;;;0.00;0.00;;;20.90;67.10;;;;;;3964719;29;19929;-64
2022/07/08 06:08:38;;;;;;;0.10;0.10;;;20.90;67.30;;;;;;3950555;29;20059;-63
2022/07/08 06:11:02;;;;;;;0.50;0.50;;;20.90;67.50;;;;;;3965977;29;20081;-64
2022/07/08 06:13:29;;;;;;;0.00;0.00;;;20.90;68.40;;;;;;3949219;29;20097;-68
2022/07/08 06:15:52;;;;;;;0.00;0.00;;;20.90;67.70;;;;;;3951001;29;20061;-68
2022/07/08 06:18:17;;;;;;;0.38;0.38;;;20.80;67.70;;;;;;3961108;29;20134;-68
2022/07/08 06:20:51;;;;;;;0.00;0.00;;;20.80;67.80;;;;;;3947959;29;20504;-64
2022/07/08 06:23:15;;;;;;;2.10;1.55;;;20.80;67.90;;;;;;3967451;29;20062;-65
2022/07/08 06:25:39;;;;;;;20.50;1.30;;;20.80;68.30;;;;;;3950636;29;20047;-68
2022/07/08 06:28:03;;;;;;;2.63;0.75;;;20.90;68.40;;;;;;3961553;29;20948;-68
2022/07/08 06:30:26;;;;;;;0.00;0.00;;;20.80;68.20;;;;;;3951743;29;20058;-66
2022/07/08 06:32:49;;;;;;;0.20;0.20;;;20.80;68.20;;;;;;3964024;29;20145;-67
2022/07/08 06:35:13;;;;;;;0.00;0.00;;;20.80;68.30;;;;;;3950164;29;20055;-67
2022/07/08 06:37:39;;;;;;;0.00;0.00;;;20.80;69.20;;;;;;3961052;29;20055;-67
2022/07/08 06:40:02;;;;;;;0.00;0.00;;;20.80;68.40;;;;;;3966785;29;20129;-67
2022/07/08 06:42:25;;;;;;;0.00;0.00;;;20.80;68.50;;;;;;3955370;29;20127;-65
2022/07/08 06:44:51;;;;;;;8.38;1.98;;;20.80;68.60;;;;;;3954378;29;20607;-69
2022/07/08 06:47:15;;;;;;;1.13;0.43;;;20.80;68.60;;;;;;3970437;29;20127;-67
2022/07/08 06:49:42;;;;;;;0.00;0.00;;;20.80;68.80;;;;;;3971064;29;20051;-67
2022/07/08 06:52:06;;;;;;;0.00;0.00;;;20.80;69.10;;;;;;3971469;29;20135;-67
2022/07/08 06:54:37;;;;;;;0.00;0.00;;;20.90;69.30;;;;;;3970454;29;20139;-68
2022/07/08 06:57:00;;;;;;;2.05;1.08;;;20.90;70.20;;;;;;3970005;29;20100;-68
2022/07/08 06:59:24;;;;;;;0.63;0.63;;;20.90;69.10;;;;;;3968949;29;20436;-70
2022/07/08 07:01:47;;;;;;;0.00;0.00;;;20.90;69.10;;;;;;3968298;29;20058;-69
2022/07/08 07:04:10;;;;;;;0.98;0.98;;;20.90;69.10;;;;;;3943057;29;20052;-69
2022/07/08 07:06:33;;;;;;;0.05;0.05;;;20.90;69.10;;;;;;3950603;29;20083;-69
2022/07/08 07:08:57;;;;;;;0.00;0.00;;;20.90;69.30;;;;;;3967726;29;20047;-70
2022/07/08 07:11:21;;;;;;;15.10;2.30;;;20.90;69.30;;;;;;3965443;29;20065;-68
2022/07/08 07:13:46;;;;;;;0.00;0.00;;;20.90;69.30;;;;;;3966516;29;20198;-68
2022/07/08 07:16:08;;;;;;;0.00;0.00;;;20.90;69.40;;;;;;3965574;29;20582;-70
2022/07/08 07:18:31;;;;;;;0.00;0.00;;;20.90;69.40;;;;;;3952656;29;20179;-70
2022/07/08 07:20:54;;;;;;;0.00;0.00;;;20.90;69.50;;;;;;3951738;29;20489;-67
2022/07/08 07:23:17;;;;;;;0.00;0.00;;;20.90;69.60;;;;;;3963049;29;20081;-70
2022/07/08 07:25:40;;;;;;;0.10;0.10;;;20.90;69.80;;;;;;3966258;29;20562;-70
2022/07/08 07:28:04;;;;;;;0.00;0.00;;;20.90;69.90;;;;;;3954732;29;20134;-70
2022/07/08 07:30:27;;;;;;;0.00;0.00;;;20.90;69.90;;;;;;3947765;29;20061;-68
2022/07/08 07:32:50;;;;;;;0.00;0.00;;;20.90;70.00;;;;;;3943388;29;20059;-71
2022/07/08 07:35:13;;;;;;;0.00;0.00;;;20.90;70.00;;;;;;3963681;29;20069;-70
2022/07/08 07:37:37;;;;;;;0.00;0.00;;;20.90;70.10;;;;;;3965278;29;20058;-70
2022/07/08 07:40:00;;;;;;;0.00;0.00;;;20.90;70.10;;;;;;3959821;29;20082;-69
2022/07/08 07:42:23;;;;;;;0.22;0.22;;;20.90;70.00;;;;;;3968342;29;20169;-70
2022/07/08 07:44:48;;;;;;;0.08;0.08;;;20.90;70.20;;;;;;3967993;29;20063;-70
2022/07/08 07:47:11;;;;;;;0.20;0.20;;;20.90;70.20;;;;;;3965092;29;20119;-70
2022/07/08 07:49:33;;;;;;;0.00;0.00;;;20.90;70.30;;;;;;3965635;29;20051;-71
2022/07/08 07:51:56;;;;;;;0.00;0.00;;;20.90;70.30;;;;;;3966295;29;20138;-69
2022/07/08 07:54:18;;;;;;;0.00;0.00;;;20.90;70.30;;;;;;3966895;29;20108;-70
2022/07/08 07:56:41;;;;;;;0.05;0.05;;;20.90;70.40;;;;;;3962234;29;20173;-70
2022/07/08 07:59:04;;;;;;;0.00;0.00;;;20.90;70.40;;;;;;3954672;29;20074;-68
2022/07/08 08:01:29;;;;;;;0.00;0.00;;;20.90;70.50;;;;;;3961746;29;20141;-70
2022/07/08 08:03:52;;;;;;;0.00;0.00;;;20.90;70.60;;;;;;3957031;29;20122;-67
2022/07/08 08:06:16;;;;;;;1.35;0.95;;;20.90;70.60;;;;;;3967870;29;20051;-67
2022/07/08 08:08:38;;;;;;;0.00;0.00;;;20.90;70.60;;;;;;3970468;29;20062;-68
2022/07/08 08:11:02;;;;;;;0.00;0.00;;;20.90;70.60;;;;;;3947753;29;20093;-65
2022/07/08 08:13:26;;;;;;;0.00;0.00;;;20.90;70.60;;;;;;3969671;29;20065;-65
2022/07/08 08:15:49;;;;;;;0.00;0.00;;;20.90;70.90;;;;;;3958243;29;20078;-67
2022/07/08 08:18:13;;;;;;;1.70;0.85;;;20.90;72.00;;;;;;3957917;29;20051;-67
2022/07/08 08:20:37;;;;;;;0.00;0.00;;;21.00;70.90;;;;;;3966678;29;20059;-67
2022/07/08 08:22:59;;;;;;;0.00;0.00;;;21.00;70.80;;;;;;3943586;29;20119;-70
2022/07/08 08:25:43;;;;;;;0.00;0.00;;;21.00;70.80;;;;;;3957785;29;20158;-67
2022/07/08 08:28:06;;;;;;;0.10;0.10;;;21.00;70.80;;;;;;3945083;29;20532;-67
2022/07/08 08:30:29;;;;;;;0.00;0.00;;;21.00;70.80;;;;;;3958442;29;20083;-68
2022/07/08 08:32:52;;;;;;;0.00;0.00;;;21.00;70.70;;;;;;3956625;29;20410;-68
2022/07/08 08:35:16;;;;;;;0.35;0.35;;;21.00;70.80;;;;;;3956373;29;20055;-68
2022/07/08 08:37:39;;;;;;;0.00;0.00;;;21.00;70.90;;;;;;3954020;29;20142;-68
2022/07/08 08:40:03;;;;;;;0.00;0.00;;;21.00;70.70;;;;;;3953064;29;20051;-68
2022/07/08 08:42:27;;;;;;;1.15;1.08;;;21.00;70.70;;;;;;3951676;29;20063;-67
2022/07/08 08:44:50;;;;;;;0.00;0.00;;;21.00;70.60;;;;;;3953592;29;20062;-68
2022/07/08 08:47:16;;;;;;;0.17;0.17;;;21.00;70.60;;;;;;3952859;29;20407;-67
2022/07/08 08:49:40;;;;;;;0.00;0.00;;;21.00;70.50;;;;;;3953237;29;20530;-68
2022/07/08 08:52:06;;;;;;;0.00;0.00;;;21.00;70.60;;;;;;3949740;29;20055;-69
2022/07/08 08:54:32;;;;;;;0.00;0.00;;;21.00;70.60;;;;;;3951474;29;20078;-71
2022/07/08 08:56:56;;;;;;;1.02;1.02;;;21.00;70.70;;;;;;3936416;29;20063;-69
2022/07/08 08:59:21;;;;;;;0.80;0.80;;;21.00;70.60;;;;;;3927282;29;20819;-70
2022/07/08 09:01:45;;;;;;;0.00;0.00;;;21.00;70.60;;;;;;3951490;30;20077;-69
2022/07/08 09:04:10;;;;;;;0.00;0.00;;;21.00;70.60;;;;;;3952086;30;20051;-69
2022/07/08 09:06:34;;;;;;;0.00;0.00;;;21.00;70.50;;;;;;3951979;30;20139;-69
2022/07/08 09:08:59;;;;;;;0.00;0.00;;;21.00;70.50;;;;;;3943786;30;20066;-69
2022/07/08 09:11:22;;;;;;;0.00;0.00;;;21.00;70.50;;;;;;3953987;30;20634;-68
2022/07/08 09:13:45;;;;;;;0.00;0.00;;;21.00;70.50;;;;;;3954368;30;20055;-68
2022/07/08 09:16:08;;;;;;;0.20;0.20;;;21.00;70.40;;;;;;3954891;30;20055;-69
2022/07/08 09:18:32;;;;;;;0.43;0.43;;;21.00;70.40;;;;;;3951858;30;20062;-62
2022/07/08 09:20:57;;;;;;;0.00;0.00;;;21.10;70.40;;;;;;3955171;30;20100;-62
2022/07/08 09:23:21;;;;;;;0.00;0.00;;;21.00;70.30;;;;;;3956308;30;20059;-61
2022/07/08 09:25:49;;;;;;;0.00;0.00;;;21.10;70.30;;;;;;3954770;30;20058;-68
2022/07/08 09:28:11;;;;;;;0.00;0.00;;;21.10;70.30;;;;;;3955197;30;20138;-69
2022/07/08 09:30:34;;;;;;;0.00;0.00;;;21.10;70.20;;;;;;3965526;29;20067;-67
2022/07/08 09:32:58;;;;;;;0.10;0.10;;;21.10;70.20;;;;;;3965907;29;20059;-69
2022/07/08 09:35:21;;;;;;;0.20;0.20;;;21.10;70.40;;;;;;3945225;29;20047;-68
2022/07/08 09:37:51;;;;;;;0.00;0.00;;;21.10;70.40;;;;;;3968372;29;20057;-62
2022/07/08 09:40:18;;;;;;;0.00;0.00;;;21.10;70.40;;;;;;3953592;29;20069;-68
2022/07/08 09:42:47;;;;;;;0.00;0.00;;;21.10;70.40;;;;;;3954479;29;20154;-69
2022/07/08 09:45:10;;;;;;;0.00;0.00;;;21.10;70.30;;;;;;3961481;29;20422;-63
2022/07/08 09:47:35;;;;;;;0.00;0.00;;;21.10;70.30;;;;;;3967747;29;20391;-63
2022/07/08 09:49:57;;;;;;;0.15;0.15;;;21.20;70.20;;;;;;3952716;29;20066;-62
2022/07/08 09:52:22;;;;;;;0.35;0.35;;;21.20;70.20;;;;;;3954675;29;20055;-63
2022/07/08 09:54:45;;;;;;;0.00;0.00;;;21.20;70.10;;;;;;3965750;29;20051;-63
2022/07/08 09:57:11;;;;;;;0.00;0.00;;;21.20;70.10;;;;;;3965046;29;20151;-63
2022/07/08 09:59:36;;;;;;;0.00;0.00;;;21.20;70.10;;;;;;3966526;29;20054;-63
2022/07/08 10:02:01;;;;;;;0.00;0.00;;;21.20;70.10;;;;;;3950032;29;20063;-63
2022/07/08 10:04:24;;;;;;;0.00;0.00;;;21.20;70.10;;;;;;3944266;29;20047;-64
2022/07/08 10:06:47;;;;;;;0.00;0.00;;;21.20;70.10;;;;;;3967994;29;20062;-70
2022/07/08 10:09:10;;;;;;;0.00;0.00;;;21.20;70.10;;;;;;3969308;29;20066;-68
2022/07/08 10:11:33;;;;;;;0.00;0.00;;;21.30;70.10;;;;;;3956007;29;20051;-69
2022/07/08 10:13:58;;;;;;;0.00;0.00;;;21.30;70.10;;;;;;3953972;29;20167;-68
2022/07/08 10:16:23;;;;;;;0.00;0.00;;;21.30;70.00;;;;;;3968434;29;20062;-69
2022/07/08 10:18:50;;;;;;;0.10;0.10;;;21.30;70.10;;;;;;3943792;30;20067;-69
2022/07/08 10:21:17;;;;;;;0.00;0.00;;;21.30;70.00;;;;;;3954824;30;20059;-69
2022/07/08 10:23:45;;;;;;;0.70;0.70;;;21.30;69.90;;;;;;3942518;30;20464;-68
2022/07/08 10:26:12;;;;;;;0.00;0.00;;;21.40;69.80;;;;;;3941945;29;20139;-64
2022/07/08 10:28:38;;;;;;;0.00;0.00;;;21.40;69.70;;;;;;3939632;29;20051;-64
2022/07/08 10:31:03;;;;;;;0.00;0.00;;;21.40;69.70;;;;;;3931821;29;20052;-64
2022/07/08 10:33:29;;;;;;;0.00;0.00;;;21.50;69.60;;;;;;3964623;29;20089;-64
2022/07/08 10:36:03;;;;;;;0.00;0.00;;;21.40;69.40;;;;;;3953433;29;20137;-64
2022/07/08 10:38:30;;;;;;;0.00;0.00;;;21.50;69.40;;;;;;3941377;29;20132;-67
2022/07/08 10:40:55;;;;;;;1.08;1.08;;;21.50;69.30;;;;;;3956515;29;20112;-64
2022/07/08 10:43:26;;;;;;;0.00;0.00;;;21.50;69.30;;;;;;3942961;29;20140;-63
2022/07/08 10:46:12;;;;;;;0.10;0.10;;;21.60;69.20;;;;;;3957633;29;20082;-69
2022/07/08 10:48:52;;;;;;;0.50;0.25;;;21.60;69.00;;;;;;3957486;29;20108;-69
2022/07/08 10:52:03;;;;;;;0.38;0.38;;;21.60;69.00;;;;;;3956190;29;20051;-70
2022/07/08 10:54:35;;;;;;;0.00;0.00;;;21.60;69.00;;;;;;3958060;29;20051;-70
2022/07/08 10:57:06;;;;;;;0.00;0.00;;;21.70;69.00;;;;;;3960041;29;20051;-69
2022/07/08 10:59:32;;;;;;;0.10;0.10;;;21.70;69.00;;;;;;3943983;29;20052;-64
2022/07/08 11:01:56;;;;;;;0.00;0.00;;;21.70;68.70;;;;;;3943604;29;20059;-64
2022/07/08 11:04:46;;;;;;;0.00;0.00;;;21.80;68.60;;;;;;3940013;29;20051;-63
2022/07/08 11:07:26;;;;;;;0.00;0.00;;;21.80;68.50;;;;;;3960628;29;20142;-64
2022/07/08 11:09:50;;;;;;;0.00;0.00;;;21.80;68.40;;;;;;3958636;29;20066;-64
2022/07/08 11:12:13;;;;;;;0.00;0.00;;;21.90;68.40;;;;;;3957948;29;20104;-65
2022/07/08 11:14:37;;;;;;;0.00;0.00;;;21.90;68.40;;;;;;3944966;29;20054;-69
2022/07/08 11:17:00;;;;;;;0.00;0.00;;;21.90;68.20;;;;;;3943164;29;20047;-65
2022/07/08 11:19:23;;;;;;;0.00;0.00;;;21.90;68.10;;;;;;3957144;29;20040;-64
2022/07/08 11:21:47;;;;;;;0.00;0.00;;;22.00;68.10;;;;;;3970431;29;20062;-65
2022/07/08 11:24:30;;;;;;;0.00;0.00;;;22.00;68.20;;;;;;3971764;29;20051;-64
2022/07/08 11:26:53;;;;;;;0.00;0.00;;;22.00;68.10;;;;;;3968792;29;20444;-64
2022/07/08 11:29:22;;;;;;;0.00;0.00;;;22.10;68.10;;;;;;3971725;29;20486;-62
2022/07/08 11:31:45;;;;;;;0.00;0.00;;;22.10;68.10;;;;;;3970381;29;20500;-63
2022/07/08 11:34:19;;;;;;;0.00;0.00;;;22.10;69.00;;;;;;3961453;29;20054;-63
2022/07/08 11:36:53;;;;;;;0.00;0.00;;;22.20;68.10;;;;;;3958188;29;20414;-61
2022/07/08 11:39:18;;;;;;;0.75;0.75;;;22.20;68.20;;;;;;3941698;29;20519;-62
2022/07/08 11:41:41;;;;;;;0.28;0.28;;;22.20;68.40;;;;;;3952529;29;20396;-62
2022/07/08 11:44:10;;;;;;;0.00;0.00;;;22.30;68.50;;;;;;3966418;29;20507;-62
2022/07/08 11:46:33;;;;;;;0.00;0.00;;;22.30;68.60;;;;;;3953006;29;20055;-63
2022/07/08 11:48:56;;;;;;;0.55;0.55;;;22.30;68.40;;;;;;3953955;29;20404;-62
2022/07/08 11:51:21;;;;;;;10.60;2.13;;;22.40;68.60;;;;;;3953808;29;20063;-66
2022/07/08 11:53:44;;;;;;;0.00;0.00;;;22.40;68.40;;;;;;3952425;29;20055;-66
2022/07/08 11:56:09;;;;;;;0.10;0.10;;;22.40;68.30;;;;;;3940526;29;20507;-62
2022/07/08 11:58:35;;;;;;;0.00;0.00;;;22.50;68.30;;;;;;3939523;29;20155;-62
2022/07/08 12:00:57;;;;;;;0.00;0.00;;;22.50;68.20;;;;;;3953824;29;20479;-62
2022/07/08 12:03:21;;;;;;;0.00;0.00;;;22.50;68.20;;;;;;3953051;29;20108;-62
2022/07/08 12:05:44;;;;;;;0.00;0.00;;;22.50;68.10;;;;;;3955942;30;21485;-63
2022/07/08 12:08:11;;;;;;;0.05;0.05;;;22.50;67.90;;;;;;3941345;30;20040;-63
2022/07/08 12:10:34;;;;;;;0.00;0.00;;;22.50;67.80;;;;;;3955972;30;20058;-62
2022/07/08 12:12:58;;;;;;;0.00;0.00;;;22.60;67.80;;;;;;3940995;30;20121;-64
2022/07/08 12:15:22;;;;;;;0.15;0.15;;;22.50;67.70;;;;;;3953291;29;20067;-63
2022/07/08 12:17:57;;;;;;;0.00;0.00;;;22.60;67.70;;;;;;3941345;29;20064;-64
2022/07/08 12:20:33;;;;;;;0.00;0.00;;;22.60;67.50;;;;;;3947788;29;20063;-63
2022/07/08 12:22:58;;;;;;;0.00;0.00;;;22.60;67.30;;;;;;3939547;29;20047;-62
2022/07/08 12:25:21;;;;;;;0.20;0.20;;;22.60;67.50;;;;;;3930548;29;20063;-64
2022/07/08 12:27:54;;;;;;;0.00;0.00;;;22.60;67.50;;;;;;3969833;29;20062;-63
2022/07/08 12:30:26;;;;;;;0.00;0.00;;;22.60;67.60;;;;;;3957594;29;20120;-63
2022/07/08 12:32:50;;;;;;;0.00;0.00;;;22.60;67.50;;;;;;3957035;29;20060;-63
2022/07/08 12:35:13;;;;;;;20.17;1.45;;;22.60;67.60;;;;;;3955928;29;20223;-63
2022/07/08 12:37:36;;;;;;;0.00;0.00;;;22.60;67.70;;;;;;3956835;29;20551;-63
2022/07/08 12:40:12;;;;;;;0.00;0.00;;;22.60;67.70;;;;;;3954819;30;20059;-64
2022/07/08 12:42:35;;;;;;;0.00;0.00;;;22.50;67.70;;;;;;3941186;30;20469;-63
2022/07/08 12:44:58;;;;;;;0.00;0.00;;;22.50;67.90;;;;;;3955052;30;20078;-63
2022/07/08 12:47:23;;;;;;;0.00;0.00;;;22.50;68.10;;;;;;3953965;30;20138;-63
2022/07/08 12:49:47;;;;;;;0.00;0.00;;;22.50;68.20;;;;;;3942262;29;20071;-63
2022/07/08 12:52:12;;;;;;;0.10;0.10;;;22.50;68.20;;;;;;3954106;29;20043;-62
2022/07/08 12:54:35;;;;;;;0.00;0.00;;;22.50;68.40;;;;;;3940755;30;20425;-63
2022/07/08 12:56:59;;;;;;;0.00;0.00;;;22.50;68.50;;;;;;3954136;30;20058;-63
2022/07/08 12:59:22;;;;;;;0.10;0.10;;;22.60;68.80;;;;;;3953584;30;20094;-67
2022/07/08 13:01:46;;;;;;;0.00;0.00;;;22.60;68.90;;;;;;3954674;29;20503;-66
2022/07/08 13:04:10;;;;;;;0.00;0.00;;;22.60;68.70;;;;;;3955021;29;20052;-67
2022/07/08 13:06:33;;;;;;;0.00;0.00;;;22.60;68.60;;;;;;3952558;29;20062;-64
2022/07/08 13:08:56;;;;;;;0.00;0.00;;;22.60;68.70;;;;;;3954035;29;20491;-63
2022/07/08 13:11:19;;;;;;;0.00;0.00;;;22.60;69.00;;;;;;3964929;29;20062;-64
2022/07/08 13:13:42;;;;;;;0.00;0.00;;;22.60;68.90;;;;;;3939974;29;20765;-63